sensor_id;sensor_type;location;lat;lon;timestamp;pressure;altitude;pressure_sealevel;temperature;humidity
77975;BME280;67164;51.202;0.278;2023-01-30T00:01:49;101869.29;;;21.68;35.67
77975;BME280;67164;51.202;0.278;2023-01-30T00:04:14;101868.83;;;21.41;35.66
77975;BME280;67164;51.202;0.278;2023-01-30T00:06:40;101860.77;;;21.63;35.67
77975;BME280;67164;51.202;0.278;2023-01-30T00:09:13;101849.59;;;21.36;35.63
77975;BME280;67164;51.202;0.278;2023-01-30T00:11:32;101848.08;;;21.35;35.67
77975;BME280;67164;51.202;0.278;2023-01-30T00:13:58;101844.78;;;21.33;35.67
77975;BME280;67164;51.202;0.278;2023-01-30T00:16:23;101841.67;;;21.54;35.69
77975;BME280;67164;51.202;0.278;2023-01-30T00:18:49;101839.77;;;21.53;35.63
77975;BME280;67164;51.202;0.278;2023-01-30T00:21:15;101841.16;;;21.25;35.69
77975;BME280;67164;51.202;0.278;2023-01-30T00:23:41;101846.94;;;21.24;35.70
77975;BME280;67164;51.202;0.278;2023-01-30T00:26:07;101843.04;;;21.44;35.71
77975;BME280;67164;51.202;0.278;2023-01-30T00:28:33;101842.71;;;21.44;35.72
77975;BME280;67164;51.202;0.278;2023-01-30T00:30:58;101832.23;;;21.19;35.71
77975;BME280;67164;51.202;0.278;2023-01-30T00:33:25;101825.52;;;21.37;35.77
77975;BME280;67164;51.202;0.278;2023-01-30T00:35:51;101830.51;;;21.39;35.72
77975;BME280;67164;51.202;0.278;2023-01-30T00:38:16;101831.27;;;21.39;35.69
77975;BME280;67164;51.202;0.278;2023-01-30T00:40:42;101820.09;;;21.61;35.73
77975;BME280;67164;51.202;0.278;2023-01-30T00:43:10;101825.00;;;21.33;35.75
77975;BME280;67164;51.202;0.278;2023-01-30T00:45:34;101824.70;;;21.31;35.77
77975;BME280;67164;51.202;0.278;2023-01-30T00:47:59;101823.43;;;21.29;35.77
77975;BME280;67164;51.202;0.278;2023-01-30T00:50:25;101828.45;;;21.51;35.77
77975;BME280;67164;51.202;0.278;2023-01-30T00:52:50;101825.97;;;21.26;35.78
77975;BME280;67164;51.202;0.278;2023-01-30T00:55:16;101827.02;;;21.25;35.79
77975;BME280;67164;51.202;0.278;2023-01-30T00:57:43;101829.33;;;21.24;35.77
77975;BME280;67164;51.202;0.278;2023-01-30T01:00:14;101838.91;;;21.48;35.75
77975;BME280;67164;51.202;0.278;2023-01-30T01:02:34;101850.01;;;21.23;35.78
77975;BME280;67164;51.202;0.278;2023-01-30T01:05:00;101850.35;;;21.20;35.89
77975;BME280;67164;51.202;0.278;2023-01-30T01:07:25;101853.37;;;21.17;35.81
77975;BME280;67164;51.202;0.278;2023-01-30T01:09:56;101852.27;;;21.39;35.85
77975;BME280;67164;51.202;0.278;2023-01-30T01:12:17;101846.25;;;21.36;35.82
77975;BME280;67164;51.202;0.278;2023-01-30T01:14:43;101838.74;;;21.12;35.79
77975;BME280;67164;51.202;0.278;2023-01-30T01:17:09;101838.45;;;21.09;35.83
77975;BME280;67164;51.202;0.278;2023-01-30T01:19:34;101846.73;;;21.31;35.83
77975;BME280;67164;51.202;0.278;2023-01-30T01:22:00;101846.96;;;21.05;35.86
77975;BME280;67164;51.202;0.278;2023-01-30T01:24:26;101836.69;;;20.75;35.89
77975;BME280;67164;51.202;0.278;2023-01-30T01:26:52;101835.18;;;21.22;35.86
77975;BME280;67164;51.202;0.278;2023-01-30T01:29:18;101826.57;;;20.98;35.94
77975;BME280;67164;51.202;0.278;2023-01-30T01:31:44;101820.21;;;21.16;35.91
77975;BME280;67164;51.202;0.278;2023-01-30T01:34:10;101815.20;;;21.15;35.96
77975;BME280;67164;51.202;0.278;2023-01-30T01:36:35;101813.11;;;21.13;35.96
77975;BME280;67164;51.202;0.278;2023-01-30T01:39:01;101805.85;;;21.38;35.94
77975;BME280;67164;51.202;0.278;2023-01-30T01:41:27;101810.08;;;21.13;35.99
77975;BME280;67164;51.202;0.278;2023-01-30T01:44:04;101815.15;;;21.12;36.04
77975;BME280;67164;51.202;0.278;2023-01-30T01:46:21;101806.62;;;21.14;35.92
77975;BME280;67164;51.202;0.278;2023-01-30T01:48:47;101805.44;;;20.95;35.85
77975;BME280;67164;51.202;0.278;2023-01-30T01:51:14;101800.65;;;21.20;35.84
77975;BME280;67164;51.202;0.278;2023-01-30T01:53:40;101797.82;;;21.20;35.86
77975;BME280;67164;51.202;0.278;2023-01-30T01:56:04;101787.97;;;21.13;35.90
77975;BME280;67164;51.202;0.278;2023-01-30T01:58:31;101780.67;;;21.06;35.95
77975;BME280;67164;51.202;0.278;2023-01-30T02:00:56;101781.77;;;21.03;35.98
77975;BME280;67164;51.202;0.278;2023-01-30T02:03:23;101778.01;;;20.76;35.99
77975;BME280;67164;51.202;0.278;2023-01-30T02:05:47;101773.61;;;21.24;36.02
77975;BME280;67164;51.202;0.278;2023-01-30T02:08:13;101777.00;;;20.78;36.02
77975;BME280;67164;51.202;0.278;2023-01-30T02:10:44;101781.64;;;20.98;36.02
77975;BME280;67164;51.202;0.278;2023-01-30T02:13:02;101792.00;;;21.20;36.13
77975;BME280;67164;51.202;0.278;2023-01-30T02:15:28;101795.11;;;20.95;36.13
77975;BME280;67164;51.202;0.278;2023-01-30T02:17:59;101795.34;;;20.90;36.12
77975;BME280;67164;51.202;0.278;2023-01-30T02:20:29;101792.19;;;20.90;36.11
77975;BME280;67164;51.202;0.278;2023-01-30T02:22:57;101789.26;;;20.91;36.11
77975;BME280;67164;51.202;0.278;2023-01-30T02:32:33;101775.30;;;20.94;36.05
77975;BME280;67164;51.202;0.278;2023-01-30T02:35:01;101770.98;;;21.41;36.09
77975;BME280;67164;51.202;0.278;2023-01-30T02:37:28;101769.29;;;20.87;36.16
77975;BME280;67164;51.202;0.278;2023-01-30T02:39:54;101769.54;;;20.85;36.25
77975;BME280;67164;51.202;0.278;2023-01-30T02:42:19;101762.69;;;20.85;36.19
77975;BME280;67164;51.202;0.278;2023-01-30T02:44:51;101768.95;;;20.78;36.22
77975;BME280;67164;51.202;0.278;2023-01-30T02:47:09;101768.19;;;20.81;36.24
77975;BME280;67164;51.202;0.278;2023-01-30T02:49:33;101761.56;;;20.79;36.23
77975;BME280;67164;51.202;0.278;2023-01-30T02:51:57;101759.55;;;20.75;36.46
77975;BME280;67164;51.202;0.278;2023-01-30T02:54:21;101760.69;;;20.77;36.22
77975;BME280;67164;51.202;0.278;2023-01-30T02:56:50;101770.06;;;20.76;36.37
77975;BME280;67164;51.202;0.278;2023-01-30T02:59:16;101764.88;;;21.22;36.29
77975;BME280;67164;51.202;0.278;2023-01-30T03:01:49;101764.86;;;20.79;36.30
77975;BME280;67164;51.202;0.278;2023-01-30T03:04:18;101770.62;;;21.02;36.33
77975;BME280;67164;51.202;0.278;2023-01-30T03:06:43;101774.51;;;20.75;36.36
77975;BME280;67164;51.202;0.278;2023-01-30T03:09:05;101775.34;;;20.75;36.28
77975;BME280;67164;51.202;0.278;2023-01-30T03:11:25;101780.94;;;20.75;36.54
77975;BME280;67164;51.202;0.278;2023-01-30T03:13:54;101782.51;;;20.99;36.29
77975;BME280;67164;51.202;0.278;2023-01-30T03:16:17;101790.56;;;20.69;36.44
77975;BME280;67164;51.202;0.278;2023-01-30T03:18:40;101792.54;;;20.72;36.30
77975;BME280;67164;51.202;0.278;2023-01-30T03:21:06;101790.97;;;20.97;36.27
77975;BME280;67164;51.202;0.278;2023-01-30T03:23:32;101789.63;;;20.68;36.35
77975;BME280;67164;51.202;0.278;2023-01-30T03:25:58;101786.68;;;20.89;36.35
77975;BME280;67164;51.202;0.278;2023-01-30T03:28:23;101788.99;;;20.60;36.30
77975;BME280;67164;51.202;0.278;2023-01-30T03:30:49;101784.88;;;20.62;36.40
77975;BME280;67164;51.202;0.278;2023-01-30T03:33:20;101782.11;;;20.57;36.38
77975;BME280;67164;51.202;0.278;2023-01-30T03:35:40;101781.06;;;20.81;36.42
77975;BME280;67164;51.202;0.278;2023-01-30T03:38:11;101781.77;;;20.79;36.46
77975;BME280;67164;51.202;0.278;2023-01-30T03:40:32;101779.71;;;20.79;36.46
77975;BME280;67164;51.202;0.278;2023-01-30T03:43:03;101776.65;;;20.79;36.44
77975;BME280;67164;51.202;0.278;2023-01-30T03:45:24;101788.62;;;20.78;36.40
77975;BME280;67164;51.202;0.278;2023-01-30T03:47:49;101787.29;;;20.52;36.41
77975;BME280;67164;51.202;0.278;2023-01-30T03:50:16;101796.74;;;20.76;36.42
77975;BME280;67164;51.202;0.278;2023-01-30T03:52:41;101796.24;;;20.70;36.44
77975;BME280;67164;51.202;0.278;2023-01-30T03:55:08;101804.22;;;20.57;36.34
77975;BME280;67164;51.202;0.278;2023-01-30T03:57:33;101803.12;;;20.79;36.41
77975;BME280;67164;51.202;0.278;2023-01-30T03:59:59;101806.18;;;20.47;36.34
77975;BME280;67164;51.202;0.278;2023-01-30T04:02:25;101805.77;;;20.53;36.27
77975;BME280;67164;51.202;0.278;2023-01-30T04:04:50;101805.07;;;20.52;36.27
77975;BME280;67164;51.202;0.278;2023-01-30T04:07:16;101800.40;;;20.76;36.36
77975;BME280;67164;51.202;0.278;2023-01-30T04:09:47;101800.64;;;20.70;36.38
77975;BME280;67164;51.202;0.278;2023-01-30T04:12:08;101804.29;;;20.67;36.47
77975;BME280;67164;51.202;0.278;2023-01-30T04:14:33;101796.71;;;20.63;36.44
77975;BME280;67164;51.202;0.278;2023-01-30T04:16:59;101789.15;;;20.55;36.48
77975;BME280;67164;51.202;0.278;2023-01-30T04:19:25;101786.14;;;20.53;36.54
77975;BME280;67164;51.202;0.278;2023-01-30T04:21:51;101785.37;;;20.53;36.56
77975;BME280;67164;51.202;0.278;2023-01-30T04:24:17;101784.24;;;20.50;36.55
77975;BME280;67164;51.202;0.278;2023-01-30T04:26:43;101783.51;;;20.50;36.54
77975;BME280;67164;51.202;0.278;2023-01-30T04:29:08;101788.53;;;20.50;36.54
77975;BME280;67164;51.202;0.278;2023-01-30T04:31:34;101794.31;;;20.44;36.54
77975;BME280;67164;51.202;0.278;2023-01-30T04:34:00;101797.85;;;20.48;36.61
77975;BME280;67164;51.202;0.278;2023-01-30T04:36:26;101802.75;;;20.65;36.57
77975;BME280;67164;51.202;0.278;2023-01-30T04:38:52;101802.03;;;20.59;36.58
77975;BME280;67164;51.202;0.278;2023-01-30T04:41:21;101801.73;;;20.40;36.62
77975;BME280;67164;51.202;0.278;2023-01-30T04:43:43;101803.80;;;20.61;36.57
77975;BME280;67164;51.202;0.278;2023-01-30T04:46:09;101803.24;;;20.64;36.62
77975;BME280;67164;51.202;0.278;2023-01-30T04:48:35;101803.53;;;20.31;36.63
77975;BME280;67164;51.202;0.278;2023-01-30T04:51:06;101808.50;;;20.56;36.59
77975;BME280;67164;51.202;0.278;2023-01-30T04:53:27;101806.25;;;20.53;36.68
77975;BME280;67164;51.202;0.278;2023-01-30T04:55:52;101808.29;;;20.58;36.68
77975;BME280;67164;51.202;0.278;2023-01-30T04:58:18;101809.09;;;20.33;36.59
77975;BME280;67164;51.202;0.278;2023-01-30T05:00:44;101810.30;;;20.66;36.57
77975;BME280;67164;51.202;0.278;2023-01-30T05:03:10;101805.40;;;20.64;36.54
77975;BME280;67164;51.202;0.278;2023-01-30T05:05:36;101809.70;;;20.39;36.57
77975;BME280;67164;51.202;0.278;2023-01-30T05:08:02;101815.44;;;20.36;36.54
77975;BME280;67164;51.202;0.278;2023-01-30T05:10:27;101820.33;;;20.33;36.56
77975;BME280;67164;51.202;0.278;2023-01-30T05:12:53;101824.87;;;20.31;36.68
77975;BME280;67164;51.202;0.278;2023-01-30T05:15:19;101831.83;;;20.48;36.69
77975;BME280;67164;51.202;0.278;2023-01-30T05:17:45;101835.22;;;20.42;36.79
77975;BME280;67164;51.202;0.278;2023-01-30T05:20:16;101839.21;;;20.23;36.73
77975;BME280;67164;51.202;0.278;2023-01-30T05:22:37;101844.05;;;20.19;36.76
77975;BME280;67164;51.202;0.278;2023-01-30T05:25:03;101846.99;;;20.39;36.78
77975;BME280;67164;51.202;0.278;2023-01-30T05:27:28;101847.05;;;20.13;36.80
77975;BME280;67164;51.202;0.278;2023-01-30T05:29:54;101837.23;;;20.38;36.79
77975;BME280;67164;51.202;0.278;2023-01-30T05:32:20;101830.74;;;20.38;36.73
77975;BME280;67164;51.202;0.278;2023-01-30T05:34:47;101832.37;;;20.12;36.78
77975;BME280;67164;51.202;0.278;2023-01-30T05:37:21;101837.60;;;20.38;36.79
77975;BME280;67164;51.202;0.278;2023-01-30T05:39:38;101839.00;;;20.33;36.82
77975;BME280;67164;51.202;0.278;2023-01-30T05:42:03;101841.14;;;20.08;36.83
77975;BME280;67164;51.202;0.278;2023-01-30T05:44:29;101843.65;;;20.27;36.88
77975;BME280;67164;51.202;0.278;2023-01-30T05:46:55;101841.85;;;20.05;36.87
77975;BME280;67164;51.202;0.278;2023-01-30T05:49:21;101848.70;;;20.28;36.83
77975;BME280;67164;51.202;0.278;2023-01-30T05:51:51;101850.70;;;20.26;36.85
77975;BME280;67164;51.202;0.278;2023-01-30T05:54:13;101856.01;;;20.25;36.86
77975;BME280;67164;51.202;0.278;2023-01-30T05:56:38;101856.58;;;20.00;36.89
77975;BME280;67164;51.202;0.278;2023-01-30T05:59:04;101864.11;;;20.26;36.91
77975;BME280;67164;51.202;0.278;2023-01-30T06:01:30;101864.95;;;20.19;36.92
77975;BME280;67164;51.202;0.278;2023-01-30T06:03:56;101870.78;;;19.93;36.90
77975;BME280;67164;51.202;0.278;2023-01-30T06:06:22;101877.35;;;19.87;36.94
77975;BME280;67164;51.202;0.278;2023-01-30T06:08:51;101881.61;;;20.14;36.88
77975;BME280;67164;51.202;0.278;2023-01-30T06:11:15;101878.88;;;20.18;36.96
77975;BME280;67164;51.202;0.278;2023-01-30T06:13:39;101880.57;;;20.10;37.02
77975;BME280;67164;51.202;0.278;2023-01-30T06:16:05;101881.58;;;19.87;36.94
77975;BME280;67164;51.202;0.278;2023-01-30T06:18:30;101884.54;;;19.86;36.95
77975;BME280;67164;51.202;0.278;2023-01-30T06:20:57;101889.73;;;20.06;36.97
77975;BME280;67164;51.202;0.278;2023-01-30T06:23:22;101893.16;;;20.07;37.00
77975;BME280;67164;51.202;0.278;2023-01-30T06:25:49;101896.10;;;20.00;37.06
77975;BME280;67164;51.202;0.278;2023-01-30T06:28:14;101891.15;;;20.11;36.96
77975;BME280;67164;51.202;0.278;2023-01-30T06:30:40;101896.28;;;19.92;36.85
77975;BME280;67164;51.202;0.278;2023-01-30T06:33:06;101897.32;;;20.13;36.90
77975;BME280;67164;51.202;0.278;2023-01-30T06:35:36;101898.71;;;20.09;36.95
77975;BME280;67164;51.202;0.278;2023-01-30T06:37:57;101900.49;;;20.03;37.01
77975;BME280;67164;51.202;0.278;2023-01-30T06:40:23;101903.76;;;19.96;37.06
77975;BME280;67164;51.202;0.278;2023-01-30T06:42:49;101909.40;;;19.95;37.05
77975;BME280;67164;51.202;0.278;2023-01-30T06:45:16;101912.12;;;19.99;37.06
77975;BME280;67164;51.202;0.278;2023-01-30T06:47:44;101918.38;;;19.99;37.01
77975;BME280;67164;51.202;0.278;2023-01-30T06:50:07;101919.08;;;19.99;36.99
77975;BME280;67164;51.202;0.278;2023-01-30T06:52:32;101925.98;;;19.99;36.99
77975;BME280;67164;51.202;0.278;2023-01-30T06:54:58;101932.47;;;20.00;37.11
77975;BME280;67164;51.202;0.278;2023-01-30T06:57:23;101930.49;;;19.97;37.05
77975;BME280;67164;51.202;0.278;2023-01-30T06:59:54;101934.25;;;19.90;37.09
77975;BME280;67164;51.202;0.278;2023-01-30T07:02:15;101927.93;;;19.89;37.08
77975;BME280;67164;51.202;0.278;2023-01-30T07:04:41;101925.79;;;19.85;37.15
77975;BME280;67164;51.202;0.278;2023-01-30T07:07:12;101926.40;;;19.84;37.20
77975;BME280;67164;51.202;0.278;2023-01-30T07:09:32;101932.20;;;19.82;37.20
77975;BME280;67164;51.202;0.278;2023-01-30T07:11:59;101942.43;;;19.70;37.45
77975;BME280;67164;51.202;0.278;2023-01-30T07:14:24;101948.28;;;19.58;37.57
77975;BME280;67164;51.202;0.278;2023-01-30T07:16:50;101956.66;;;19.60;37.65
77975;BME280;67164;51.202;0.278;2023-01-30T07:19:16;101963.35;;;19.50;37.76
77975;BME280;67164;51.202;0.278;2023-01-30T07:21:42;101962.33;;;19.48;37.81
77975;BME280;67164;51.202;0.278;2023-01-30T07:24:08;101970.98;;;19.50;37.82
77975;BME280;67164;51.202;0.278;2023-01-30T07:26:33;101975.88;;;19.51;37.75
77975;BME280;67164;51.202;0.278;2023-01-30T07:28:59;101982.71;;;19.42;37.94
77975;BME280;67164;51.202;0.278;2023-01-30T07:31:25;101987.33;;;19.45;37.99
77975;BME280;67164;51.202;0.278;2023-01-30T07:33:51;101995.26;;;19.48;37.79
77975;BME280;67164;51.202;0.278;2023-01-30T07:36:17;101995.85;;;19.39;38.01
77975;BME280;67164;51.202;0.278;2023-01-30T07:38:48;102005.55;;;19.61;37.99
77975;BME280;67164;51.202;0.278;2023-01-30T07:41:08;102012.30;;;19.41;37.94
77975;BME280;67164;51.202;0.278;2023-01-30T07:43:34;102014.99;;;19.34;38.12
77975;BME280;67164;51.202;0.278;2023-01-30T07:46:02;102026.75;;;19.31;38.19
77975;BME280;67164;51.202;0.278;2023-01-30T07:48:31;102037.95;;;19.37;37.96
77975;BME280;67164;51.202;0.278;2023-01-30T07:50:57;102044.91;;;19.45;37.96
77975;BME280;67164;51.202;0.278;2023-01-30T07:53:17;102045.03;;;19.34;38.04
77975;BME280;67164;51.202;0.278;2023-01-30T07:55:47;102041.60;;;19.57;38.14
77975;BME280;67164;51.202;0.278;2023-01-30T07:58:11;102039.80;;;19.32;37.99
77975;BME280;67164;51.202;0.278;2023-01-30T08:00:35;102047.98;;;19.62;37.89
77975;BME280;67164;51.202;0.278;2023-01-30T08:03:01;102061.97;;;19.59;37.86
77975;BME280;67164;51.202;0.278;2023-01-30T08:05:26;102067.49;;;19.39;37.72
77975;BME280;67164;51.202;0.278;2023-01-30T08:07:57;102073.20;;;19.75;37.68
77975;BME280;67164;51.202;0.278;2023-01-30T08:10:18;102078.55;;;19.46;37.81
77975;BME280;67164;51.202;0.278;2023-01-30T08:12:44;102083.04;;;19.49;37.72
77975;BME280;67164;51.202;0.278;2023-01-30T08:15:10;102080.79;;;19.55;37.92
77975;BME280;67164;51.202;0.278;2023-01-30T08:17:36;102079.69;;;19.76;37.75
77975;BME280;67164;51.202;0.278;2023-01-30T08:20:02;102079.65;;;19.65;37.74
77975;BME280;67164;51.202;0.278;2023-01-30T08:22:28;102085.51;;;19.61;37.97
77975;BME280;67164;51.202;0.278;2023-01-30T08:24:53;102075.03;;;19.45;38.06
77975;BME280;67164;51.202;0.278;2023-01-30T08:27:19;102065.18;;;19.42;38.11
77975;BME280;67164;51.202;0.278;2023-01-30T08:29:45;102062.09;;;19.78;37.92
77975;BME280;67164;51.202;0.278;2023-01-30T08:32:15;102062.39;;;19.51;38.24
77975;BME280;67164;51.202;0.278;2023-01-30T08:34:37;102063.22;;;19.49;37.98
77975;BME280;67164;51.202;0.278;2023-01-30T08:37:02;102069.37;;;19.46;38.14
77975;BME280;67164;51.202;0.278;2023-01-30T08:39:28;102070.60;;;19.42;38.42
77975;BME280;67164;51.202;0.278;2023-01-30T08:41:56;102073.44;;;19.31;38.83
77975;BME280;67164;51.202;0.278;2023-01-30T08:44:20;102069.18;;;19.27;38.98
77975;BME280;67164;51.202;0.278;2023-01-30T08:46:50;102074.90;;;18.98;39.13
77975;BME280;67164;51.202;0.278;2023-01-30T08:49:17;102092.24;;;19.16;39.32
77975;BME280;67164;51.202;0.278;2023-01-30T08:51:38;102101.90;;;19.25;39.37
77975;BME280;67164;51.202;0.278;2023-01-30T08:54:08;102128.30;;;18.97;39.96
77975;BME280;67164;51.202;0.278;2023-01-30T08:56:29;102130.62;;;18.89;40.20
77975;BME280;67164;51.202;0.278;2023-01-30T08:58:55;102129.61;;;18.85;40.33
77975;BME280;67164;51.202;0.278;2023-01-30T09:01:20;102125.46;;;18.61;40.49
77975;BME280;67164;51.202;0.278;2023-01-30T09:03:47;102125.52;;;18.84;40.66
77975;BME280;67164;51.202;0.278;2023-01-30T09:06:13;102129.16;;;18.82;40.90
77975;BME280;67164;51.202;0.278;2023-01-30T09:08:38;102127.55;;;18.87;40.91
77975;BME280;67164;51.202;0.278;2023-01-30T09:11:04;102136.60;;;18.71;40.93
77975;BME280;67164;51.202;0.278;2023-01-30T09:13:30;102138.14;;;19.05;40.84
77975;BME280;67164;51.202;0.278;2023-01-30T09:15:55;102136.36;;;19.02;40.61
77975;BME280;67164;51.202;0.278;2023-01-30T09:18:21;102141.97;;;18.98;40.73
77975;BME280;67164;51.202;0.278;2023-01-30T09:20:47;102140.49;;;18.88;40.87
77975;BME280;67164;51.202;0.278;2023-01-30T09:23:13;102137.10;;;18.86;40.91
77975;BME280;67164;51.202;0.278;2023-01-30T09:25:38;102131.18;;;19.27;40.67
77975;BME280;67164;51.202;0.278;2023-01-30T09:28:09;102128.15;;;19.03;40.73
77975;BME280;67164;51.202;0.278;2023-01-30T09:30:30;102131.22;;;19.34;40.61
77975;BME280;67164;51.202;0.278;2023-01-30T09:32:56;102130.35;;;19.11;40.65
77975;BME280;67164;51.202;0.278;2023-01-30T09:35:22;102138.23;;;18.83;40.70
77975;BME280;67164;51.202;0.278;2023-01-30T09:37:48;102148.44;;;19.42;40.61
77975;BME280;67164;51.202;0.278;2023-01-30T09:40:21;102154.43;;;18.88;40.66
77975;BME280;67164;51.202;0.278;2023-01-30T09:42:53;102154.92;;;19.23;40.55
77975;BME280;67164;51.202;0.278;2023-01-30T09:45:28;102150.86;;;19.10;40.72
77975;BME280;67164;51.202;0.278;2023-01-30T09:47:38;102158.33;;;19.36;40.69
77975;BME280;67164;51.202;0.278;2023-01-30T09:50:03;102159.69;;;19.07;40.87
77975;BME280;67164;51.202;0.278;2023-01-30T09:52:29;102171.87;;;19.00;40.65
77975;BME280;67164;51.202;0.278;2023-01-30T09:54:48;102177.33;;;19.17;40.47
77975;BME280;67164;51.202;0.278;2023-01-30T09:57:16;102171.23;;;19.51;39.94
77975;BME280;67164;51.202;0.278;2023-01-30T09:59:47;102172.50;;;19.16;39.96
77975;BME280;67164;51.202;0.278;2023-01-30T10:02:21;102177.75;;;19.51;39.80
77975;BME280;67164;51.202;0.278;2023-01-30T10:04:33;102181.78;;;19.90;39.61
77975;BME280;67164;51.202;0.278;2023-01-30T10:07:04;102182.58;;;20.02;39.96
77975;BME280;67164;51.202;0.278;2023-01-30T10:09:32;102188.71;;;19.69;40.44
77975;BME280;67164;51.202;0.278;2023-01-30T10:11:58;102187.15;;;19.69;40.55
77975;BME280;67164;51.202;0.278;2023-01-30T10:14:25;102190.83;;;19.88;40.52
77975;BME280;67164;51.202;0.278;2023-01-30T10:16:45;102190.57;;;19.71;40.91
77975;BME280;67164;51.202;0.278;2023-01-30T10:19:17;102195.35;;;19.93;41.19
77975;BME280;67164;51.202;0.278;2023-01-30T10:21:41;102193.19;;;19.77;41.14
77975;BME280;67164;51.202;0.278;2023-01-30T10:24:10;102193.82;;;20.00;41.23
77975;BME280;67164;51.202;0.278;2023-01-30T10:26:25;102196.60;;;20.28;40.94
77975;BME280;67164;51.202;0.278;2023-01-30T10:28:55;102192.00;;;19.58;41.68
77975;BME280;67164;51.202;0.278;2023-01-30T10:31:15;102185.28;;;19.73;41.27
77975;BME280;67164;51.202;0.278;2023-01-30T10:33:43;102174.55;;;19.73;41.21
77975;BME280;67164;51.202;0.278;2023-01-30T10:36:09;102168.68;;;19.90;41.09
77975;BME280;67164;51.202;0.278;2023-01-30T10:38:37;102178.22;;;19.71;40.89
77975;BME280;67164;51.202;0.278;2023-01-30T10:41:01;102182.10;;;19.71;40.83
77975;BME280;67164;51.202;0.278;2023-01-30T10:43:31;102187.47;;;19.94;40.65
77975;BME280;67164;51.202;0.278;2023-01-30T10:45:53;102186.58;;;19.75;40.63
77975;BME280;67164;51.202;0.278;2023-01-30T10:48:28;102178.72;;;19.80;40.55
77975;BME280;67164;51.202;0.278;2023-01-30T10:50:48;102181.53;;;20.03;40.48
77975;BME280;67164;51.202;0.278;2023-01-30T10:53:12;102174.97;;;19.85;40.21
77975;BME280;67164;51.202;0.278;2023-01-30T10:55:35;102183.52;;;19.83;40.14
77975;BME280;67164;51.202;0.278;2023-01-30T10:58:04;102182.69;;;20.07;39.90
77975;BME280;67164;51.202;0.278;2023-01-30T11:00:28;102190.42;;;20.11;39.71
77975;BME280;67164;51.202;0.278;2023-01-30T11:03:03;102198.26;;;20.15;39.67
77975;BME280;67164;51.202;0.278;2023-01-30T11:05:18;102200.44;;;20.17;39.58
77975;BME280;67164;51.202;0.278;2023-01-30T11:07:42;102196.50;;;20.21;39.44
77975;BME280;67164;51.202;0.278;2023-01-30T11:10:14;102182.69;;;20.43;39.19
77975;BME280;67164;51.202;0.278;2023-01-30T11:12:32;102182.01;;;20.34;39.05
77975;BME280;67164;51.202;0.278;2023-01-30T11:15:00;102180.34;;;20.30;38.99
77975;BME280;67164;51.202;0.278;2023-01-30T11:17:32;102191.06;;;20.38;38.92
77975;BME280;67164;51.202;0.278;2023-01-30T11:19:54;102199.16;;;20.17;39.08
77975;BME280;67164;51.202;0.278;2023-01-30T11:22:16;102205.77;;;20.31;39.05
77975;BME280;67164;51.202;0.278;2023-01-30T11:24:43;102207.54;;;20.22;39.18
77975;BME280;67164;51.202;0.278;2023-01-30T11:27:09;102194.83;;;20.73;38.88
77975;BME280;67164;51.202;0.278;2023-01-30T11:29:33;102187.55;;;20.79;38.72
77975;BME280;67164;51.202;0.278;2023-01-30T11:32:02;102184.12;;;20.56;38.66
77975;BME280;67164;51.202;0.278;2023-01-30T11:34:25;102192.87;;;20.59;38.63
77975;BME280;67164;51.202;0.278;2023-01-30T11:36:50;102195.50;;;20.41;38.86
77975;BME280;67164;51.202;0.278;2023-01-30T11:39:21;102190.60;;;20.41;38.73
77975;BME280;67164;51.202;0.278;2023-01-30T11:41:43;102200.06;;;20.44;39.06
77975;BME280;67164;51.202;0.278;2023-01-30T11:44:09;102209.25;;;20.26;38.98
77975;BME280;67164;51.202;0.278;2023-01-30T11:46:35;102208.37;;;20.62;38.75
77975;BME280;67164;51.202;0.278;2023-01-30T11:49:02;102206.08;;;20.53;38.79
77975;BME280;67164;51.202;0.278;2023-01-30T11:51:26;102202.39;;;20.52;38.60
77975;BME280;67164;51.202;0.278;2023-01-30T11:53:59;102201.49;;;20.25;38.65
77975;BME280;67164;51.202;0.278;2023-01-30T11:56:20;102193.87;;;20.46;38.69
77975;BME280;67164;51.202;0.278;2023-01-30T11:58:43;102194.49;;;20.60;38.73
77975;BME280;67164;51.202;0.278;2023-01-30T12:01:15;102197.98;;;20.24;38.54
77975;BME280;67164;51.202;0.278;2023-01-30T12:03:43;102197.92;;;20.49;38.46
77975;BME280;67164;51.202;0.278;2023-01-30T12:06:00;102201.11;;;20.27;38.43
77975;BME280;67164;51.202;0.278;2023-01-30T12:08:34;102200.06;;;20.47;38.70
77975;BME280;67164;51.202;0.278;2023-01-30T12:10:54;102203.69;;;20.35;38.45
77975;BME280;67164;51.202;0.278;2023-01-30T12:13:23;102197.63;;;20.60;38.25
77975;BME280;67164;51.202;0.278;2023-01-30T12:15:44;102196.10;;;20.37;38.08
77975;BME280;67164;51.202;0.278;2023-01-30T12:18:13;102187.05;;;20.25;38.11
77975;BME280;67164;51.202;0.278;2023-01-30T12:20:45;102184.65;;;20.50;38.04
77975;BME280;67164;51.202;0.278;2023-01-30T12:23:07;102185.58;;;20.47;38.03
77975;BME280;67164;51.202;0.278;2023-01-30T12:25:30;102182.46;;;20.48;37.96
77975;BME280;67164;51.202;0.278;2023-01-30T12:27:57;102177.07;;;20.48;37.86
77975;BME280;67164;51.202;0.278;2023-01-30T12:30:25;102179.20;;;20.43;37.87
77975;BME280;67164;51.202;0.278;2023-01-30T12:32:43;102174.35;;;20.66;37.88
77975;BME280;67164;51.202;0.278;2023-01-30T12:35:16;102171.66;;;20.34;37.93
77975;BME280;67164;51.202;0.278;2023-01-30T12:37:45;102171.71;;;20.30;37.86
77975;BME280;67164;51.202;0.278;2023-01-30T12:40:06;102180.11;;;20.23;37.94
77975;BME280;67164;51.202;0.278;2023-01-30T12:42:38;102191.59;;;20.24;37.88
77975;BME280;67164;51.202;0.278;2023-01-30T12:45:10;102195.43;;;20.14;37.78
77975;BME280;67164;51.202;0.278;2023-01-30T12:47:30;102194.03;;;20.36;37.92
77975;BME280;67164;51.202;0.278;2023-01-30T12:49:56;102188.84;;;19.94;38.01